sensor_id;sensor_type;location;lat;lon;timestamp;P1;durP1;ratioP1;P2;durP2;ratioP2
73456;SDS011;61691;53.072;6.582;2022-12-15T00:05:01;24.05;;;10.55;;
73456;SDS011;61691;53.072;6.582;2022-12-15T00:07:46;26.20;;;10.40;;
73456;SDS011;61691;53.072;6.582;2022-12-15T00:10:31;25.42;;;11.27;;
73456;SDS011;61691;53.072;6.582;2022-12-15T00:13:16;23.55;;;10.45;;
73456;SDS011;61691;53.072;6.582;2022-12-15T00:16:02;23.30;;;10.95;;
73456;SDS011;61691;53.072;6.582;2022-12-15T00:18:47;25.17;;;11.18;;
73456;SDS011;61691;53.072;6.582;2022-12-15T00:21:33;22.85;;;10.10;;
73456;SDS011;61691;53.072;6.582;2022-12-15T00:24:18;22.50;;;9.43;;
73456;SDS011;61691;53.072;6.582;2022-12-15T00:27:04;26.40;;;10.63;;
73456;SDS011;61691;53.072;6.582;2022-12-15T00:29:49;22.15;;;9.55;;
73456;SDS011;61691;53.072;6.582;2022-12-15T00:32:34;25.23;;;10.63;;
73456;SDS011;61691;53.072;6.582;2022-12-15T00:35:19;24.35;;;10.50;;
73456;SDS011;61691;53.072;6.582;2022-12-15T00:38:06;26.92;;;10.93;;
73456;SDS011;61691;53.072;6.582;2022-12-15T00:40:55;24.73;;;10.57;;
73456;SDS011;61691;53.072;6.582;2022-12-15T00:43:28;24.58;;;10.52;;
73456;SDS011;61691;53.072;6.582;2022-12-15T00:45:56;23.60;;;10.30;;
73456;SDS011;61691;53.072;6.582;2022-12-15T00:48:42;22.27;;;10.15;;
73456;SDS011;61691;53.072;6.582;2022-12-15T00:51:09;22.95;;;9.35;;
73456;SDS011;61691;53.072;6.582;2022-12-15T00:53:36;24.35;;;11.63;;
73456;SDS011;61691;53.072;6.582;2022-12-15T00:56:22;21.60;;;8.82;;
73456;SDS011;61691;53.072;6.582;2022-12-15T00:59:08;22.73;;;8.88;;
73456;SDS011;61691;53.072;6.582;2022-12-15T01:01:55;21.55;;;9.30;;
73456;SDS011;61691;53.072;6.582;2022-12-15T01:04:41;25.73;;;10.20;;
73456;SDS011;61691;53.072;6.582;2022-12-15T01:07:26;22.02;;;9.73;;
73456;SDS011;61691;53.072;6.582;2022-12-15T01:10:15;22.23;;;9.50;;
73456;SDS011;61691;53.072;6.582;2022-12-15T01:13:01;25.90;;;10.85;;
73456;SDS011;61691;53.072;6.582;2022-12-15T01:15:47;23.30;;;10.40;;
73456;SDS011;61691;53.072;6.582;2022-12-15T01:18:32;26.20;;;10.23;;
73456;SDS011;61691;53.072;6.582;2022-12-15T01:21:19;23.15;;;9.73;;
73456;SDS011;61691;53.072;6.582;2022-12-15T01:23:50;24.33;;;10.95;;
73456;SDS011;61691;53.072;6.582;2022-12-15T01:26:17;23.48;;;10.50;;
73456;SDS011;61691;53.072;6.582;2022-12-15T01:28:44;23.48;;;9.90;;
73456;SDS011;61691;53.072;6.582;2022-12-15T01:31:11;24.38;;;9.93;;
73456;SDS011;61691;53.072;6.582;2022-12-15T01:33:38;20.65;;;9.35;;
73456;SDS011;61691;53.072;6.582;2022-12-15T01:36:08;24.50;;;10.57;;
73456;SDS011;61691;53.072;6.582;2022-12-15T01:38:35;24.98;;;10.70;;
73456;SDS011;61691;53.072;6.582;2022-12-15T01:41:02;24.23;;;11.30;;
73456;SDS011;61691;53.072;6.582;2022-12-15T01:43:33;24.95;;;10.32;;
73456;SDS011;61691;53.072;6.582;2022-12-15T01:51:12;22.98;;;9.63;;
73456;SDS011;61691;53.072;6.582;2022-12-15T01:53:47;22.17;;;9.40;;
73456;SDS011;61691;53.072;6.582;2022-12-15T01:56:21;23.10;;;9.80;;
73456;SDS011;61691;53.072;6.582;2022-12-15T01:58:50;23.35;;;9.88;;
73456;SDS011;61691;53.072;6.582;2022-12-15T02:01:20;22.13;;;8.75;;
73456;SDS011;61691;53.072;6.582;2022-12-15T02:03:47;23.05;;;10.40;;
73456;SDS011;61691;53.072;6.582;2022-12-15T02:06:14;22.15;;;9.45;;
73456;SDS011;61691;53.072;6.582;2022-12-15T02:08:47;23.08;;;10.05;;
73456;SDS011;61691;53.072;6.582;2022-12-15T02:11:26;23.33;;;9.55;;
73456;SDS011;61691;53.072;6.582;2022-12-15T02:14:04;23.48;;;10.02;;
73456;SDS011;61691;53.072;6.582;2022-12-15T02:19:32;21.85;;;9.77;;
73456;SDS011;61691;53.072;6.582;2022-12-15T02:32:53;23.67;;;9.95;;
73456;SDS011;61691;53.072;6.582;2022-12-15T02:38:00;21.20;;;9.82;;
73456;SDS011;61691;53.072;6.582;2022-12-15T02:40:27;22.40;;;9.43;;
73456;SDS011;61691;53.072;6.582;2022-12-15T02:42:54;22.23;;;9.23;;
73456;SDS011;61691;53.072;6.582;2022-12-15T02:45:30;21.73;;;8.82;;
73456;SDS011;61691;53.072;6.582;2022-12-15T02:48:09;21.35;;;8.77;;
73456;SDS011;61691;53.072;6.582;2022-12-15T02:51:41;21.90;;;8.75;;
73456;SDS011;61691;53.072;6.582;2022-12-15T02:56:45;22.80;;;9.07;;
73456;SDS011;61691;53.072;6.582;2022-12-15T02:59:26;22.80;;;8.90;;
73456;SDS011;61691;53.072;6.582;2022-12-15T03:02:03;20.73;;;7.82;;
73456;SDS011;61691;53.072;6.582;2022-12-15T03:04:33;20.20;;;8.00;;
73456;SDS011;61691;53.072;6.582;2022-12-15T03:07:02;22.48;;;8.65;;
73456;SDS011;61691;53.072;6.582;2022-12-15T03:09:31;22.42;;;8.57;;
73456;SDS011;61691;53.072;6.582;2022-12-15T03:11:57;21.75;;;8.27;;
73456;SDS011;61691;53.072;6.582;2022-12-15T03:14:25;21.70;;;9.00;;
73456;SDS011;61691;53.072;6.582;2022-12-15T03:16:53;21.73;;;8.30;;
73456;SDS011;61691;53.072;6.582;2022-12-15T03:19:21;21.02;;;8.77;;
73456;SDS011;61691;53.072;6.582;2022-12-15T03:21:48;20.20;;;8.02;;
73456;SDS011;61691;53.072;6.582;2022-12-15T03:24:14;21.55;;;8.48;;
73456;SDS011;61691;53.072;6.582;2022-12-15T03:26:41;20.50;;;8.35;;
73456;SDS011;61691;53.072;6.582;2022-12-15T03:29:09;19.90;;;8.30;;
73456;SDS011;61691;53.072;6.582;2022-12-15T03:31:35;19.95;;;8.10;;
73456;SDS011;61691;53.072;6.582;2022-12-15T03:34:02;19.48;;;7.70;;
73456;SDS011;61691;53.072;6.582;2022-12-15T03:36:29;20.90;;;7.70;;
73456;SDS011;61691;53.072;6.582;2022-12-15T03:38:56;19.30;;;7.32;;
73456;SDS011;61691;53.072;6.582;2022-12-15T03:41:22;22.45;;;7.63;;
73456;SDS011;61691;53.072;6.582;2022-12-15T03:43:49;21.67;;;8.65;;
73456;SDS011;61691;53.072;6.582;2022-12-15T03:46:16;21.25;;;8.13;;
73456;SDS011;61691;53.072;6.582;2022-12-15T03:48:43;19.70;;;8.35;;
73456;SDS011;61691;53.072;6.582;2022-12-15T03:51:12;20.10;;;7.93;;
73456;SDS011;61691;53.072;6.582;2022-12-15T03:53:39;22.08;;;8.15;;
73456;SDS011;61691;53.072;6.582;2022-12-15T03:56:06;21.00;;;8.20;;
73456;SDS011;61691;53.072;6.582;2022-12-15T03:58:33;20.40;;;8.40;;
73456;SDS011;61691;53.072;6.582;2022-12-15T04:01:08;22.15;;;8.93;;
73456;SDS011;61691;53.072;6.582;2022-12-15T04:03:38;20.60;;;8.20;;
73456;SDS011;61691;53.072;6.582;2022-12-15T04:06:05;19.95;;;7.93;;
73456;SDS011;61691;53.072;6.582;2022-12-15T04:08:32;22.23;;;7.72;;
73456;SDS011;61691;53.072;6.582;2022-12-15T04:10:59;20.40;;;8.70;;
73456;SDS011;61691;53.072;6.582;2022-12-15T04:13:25;22.73;;;8.00;;
73456;SDS011;61691;53.072;6.582;2022-12-15T04:15:52;19.92;;;7.65;;
73456;SDS011;61691;53.072;6.582;2022-12-15T04:18:19;21.02;;;7.10;;
73456;SDS011;61691;53.072;6.582;2022-12-15T04:20:46;22.10;;;7.45;;
73456;SDS011;61691;53.072;6.582;2022-12-15T04:23:15;19.60;;;8.40;;
73456;SDS011;61691;53.072;6.582;2022-12-15T04:25:42;21.17;;;8.90;;
73456;SDS011;61691;53.072;6.582;2022-12-15T04:28:27;20.58;;;7.57;;
73456;SDS011;61691;53.072;6.582;2022-12-15T04:31:14;20.30;;;7.82;;
73456;SDS011;61691;53.072;6.582;2022-12-15T04:34:03;18.73;;;6.90;;
73456;SDS011;61691;53.072;6.582;2022-12-15T04:36:53;19.65;;;7.57;;
73456;SDS011;61691;53.072;6.582;2022-12-15T04:39:43;20.27;;;7.97;;
73456;SDS011;61691;53.072;6.582;2022-12-15T04:42:31;19.48;;;7.22;;
73456;SDS011;61691;53.072;6.582;2022-12-15T04:45:19;21.13;;;8.88;;
73456;SDS011;61691;53.072;6.582;2022-12-15T04:48:07;20.27;;;6.93;;
73456;SDS011;61691;53.072;6.582;2022-12-15T04:50:52;22.27;;;7.20;;
73456;SDS011;61691;53.072;6.582;2022-12-15T04:53:38;22.77;;;9.02;;
73456;SDS011;61691;53.072;6.582;2022-12-15T04:56:24;22.38;;;7.60;;
73456;SDS011;61691;53.072;6.582;2022-12-15T04:59:09;23.80;;;7.75;;
73456;SDS011;61691;53.072;6.582;2022-12-15T05:01:55;20.00;;;7.63;;
73456;SDS011;61691;53.072;6.582;2022-12-15T05:04:40;22.42;;;7.90;;
73456;SDS011;61691;53.072;6.582;2022-12-15T05:07:26;20.10;;;7.95;;
73456;SDS011;61691;53.072;6.582;2022-12-15T05:10:11;23.38;;;7.97;;
73456;SDS011;61691;53.072;6.582;2022-12-15T05:13:03;20.90;;;7.82;;
73456;SDS011;61691;53.072;6.582;2022-12-15T05:15:49;19.10;;;7.75;;
73456;SDS011;61691;53.072;6.582;2022-12-15T05:18:35;22.67;;;7.88;;
73456;SDS011;61691;53.072;6.582;2022-12-15T05:21:21;21.40;;;8.50;;
73456;SDS011;61691;53.072;6.582;2022-12-15T05:24:06;21.80;;;8.48;;
73456;SDS011;61691;53.072;6.582;2022-12-15T05:26:51;21.55;;;8.27;;
73456;SDS011;61691;53.072;6.582;2022-12-15T05:29:37;21.70;;;8.55;;
73456;SDS011;61691;53.072;6.582;2022-12-15T05:32:22;21.20;;;8.05;;
73456;SDS011;61691;53.072;6.582;2022-12-15T05:34:49;19.52;;;8.05;;
73456;SDS011;61691;53.072;6.582;2022-12-15T05:37:16;23.45;;;8.48;;
73456;SDS011;61691;53.072;6.582;2022-12-15T05:39:43;23.42;;;8.25;;
73456;SDS011;61691;53.072;6.582;2022-12-15T05:42:10;20.75;;;8.25;;
73456;SDS011;61691;53.072;6.582;2022-12-15T05:44:36;22.10;;;8.15;;
73456;SDS011;61691;53.072;6.582;2022-12-15T05:47:03;19.52;;;7.72;;
73456;SDS011;61691;53.072;6.582;2022-12-15T05:49:30;20.15;;;7.68;;
73456;SDS011;61691;53.072;6.582;2022-12-15T05:51:58;20.90;;;8.23;;
73456;SDS011;61691;53.072;6.582;2022-12-15T05:54:25;21.63;;;6.97;;
73456;SDS011;61691;53.072;6.582;2022-12-15T05:56:52;22.13;;;8.52;;
73456;SDS011;61691;53.072;6.582;2022-12-15T05:59:19;23.77;;;7.68;;
73456;SDS011;61691;53.072;6.582;2022-12-15T06:01:45;22.50;;;7.25;;
73456;SDS011;61691;53.072;6.582;2022-12-15T06:04:12;20.20;;;7.93;;
73456;SDS011;61691;53.072;6.582;2022-12-15T06:06:40;21.65;;;7.90;;
73456;SDS011;61691;53.072;6.582;2022-12-15T06:09:07;18.75;;;7.35;;
73456;SDS011;61691;53.072;6.582;2022-12-15T06:11:35;20.70;;;8.40;;
73456;SDS011;61691;53.072;6.582;2022-12-15T06:14:03;19.50;;;7.53;;
73456;SDS011;61691;53.072;6.582;2022-12-15T06:16:29;21.10;;;8.00;;
73456;SDS011;61691;53.072;6.582;2022-12-15T06:18:58;20.75;;;8.63;;
73456;SDS011;61691;53.072;6.582;2022-12-15T06:21:27;19.45;;;7.57;;
73456;SDS011;61691;53.072;6.582;2022-12-15T06:24:01;18.60;;;7.18;;
73456;SDS011;61691;53.072;6.582;2022-12-15T06:26:30;21.38;;;8.10;;
73456;SDS011;61691;53.072;6.582;2022-12-15T06:28:59;20.37;;;7.57;;
73456;SDS011;61691;53.072;6.582;2022-12-15T06:31:28;19.45;;;7.57;;
73456;SDS011;61691;53.072;6.582;2022-12-15T06:33:57;20.02;;;7.72;;
73456;SDS011;61691;53.072;6.582;2022-12-15T06:38:56;20.67;;;7.40;;
73456;SDS011;61691;53.072;6.582;2022-12-15T06:41:24;19.67;;;7.15;;
73456;SDS011;61691;53.072;6.582;2022-12-15T06:43:51;19.98;;;7.72;;
73456;SDS011;61691;53.072;6.582;2022-12-15T06:46:21;20.98;;;6.85;;
73456;SDS011;61691;53.072;6.582;2022-12-15T06:48:49;19.40;;;7.35;;
73456;SDS011;61691;53.072;6.582;2022-12-15T06:51:17;19.95;;;7.60;;
73456;SDS011;61691;53.072;6.582;2022-12-15T06:53:44;22.70;;;6.60;;
73456;SDS011;61691;53.072;6.582;2022-12-15T06:56:18;18.80;;;6.43;;
73456;SDS011;61691;53.072;6.582;2022-12-15T06:58:46;19.95;;;6.68;;
73456;SDS011;61691;53.072;6.582;2022-12-15T07:01:14;22.30;;;6.55;;
73456;SDS011;61691;53.072;6.582;2022-12-15T07:03:41;20.77;;;6.88;;
73456;SDS011;61691;53.072;6.582;2022-12-15T07:06:10;19.95;;;6.70;;
73456;SDS011;61691;53.072;6.582;2022-12-15T07:08:38;18.80;;;6.40;;
73456;SDS011;61691;53.072;6.582;2022-12-15T07:11:09;19.77;;;6.63;;
73456;SDS011;61691;53.072;6.582;2022-12-15T07:13:37;21.52;;;7.05;;
73456;SDS011;61691;53.072;6.582;2022-12-15T07:16:05;19.17;;;6.13;;
73456;SDS011;61691;53.072;6.582;2022-12-15T07:18:33;21.73;;;6.53;;
73456;SDS011;61691;53.072;6.582;2022-12-15T07:21:03;19.90;;;7.43;;
73456;SDS011;61691;53.072;6.582;2022-12-15T07:23:32;20.48;;;6.75;;
73456;SDS011;61691;53.072;6.582;2022-12-15T07:26:19;20.58;;;7.60;;
73456;SDS011;61691;53.072;6.582;2022-12-15T07:28:46;23.05;;;8.43;;
73456;SDS011;61691;53.072;6.582;2022-12-15T07:31:12;22.17;;;6.90;;
73456;SDS011;61691;53.072;6.582;2022-12-15T07:33:41;18.52;;;6.72;;
73456;SDS011;61691;53.072;6.582;2022-12-15T07:36:08;19.77;;;7.53;;
73456;SDS011;61691;53.072;6.582;2022-12-15T07:38:36;19.33;;;6.97;;
73456;SDS011;61691;53.072;6.582;2022-12-15T07:41:03;19.70;;;7.40;;
73456;SDS011;61691;53.072;6.582;2022-12-15T07:43:32;21.50;;;6.45;;
73456;SDS011;61691;53.072;6.582;2022-12-15T07:46:00;18.58;;;7.30;;
73456;SDS011;61691;53.072;6.582;2022-12-15T07:48:28;23.42;;;8.77;;
73456;SDS011;61691;53.072;6.582;2022-12-15T07:50:55;22.25;;;7.85;;
73456;SDS011;61691;53.072;6.582;2022-12-15T07:53:32;21.77;;;7.03;;
73456;SDS011;61691;53.072;6.582;2022-12-15T07:56:00;19.17;;;6.95;;
73456;SDS011;61691;53.072;6.582;2022-12-15T07:58:36;19.92;;;6.55;;
73456;SDS011;61691;53.072;6.582;2022-12-15T08:01:05;18.88;;;6.72;;
73456;SDS011;61691;53.072;6.582;2022-12-15T08:03:33;18.52;;;6.47;;
73456;SDS011;61691;53.072;6.582;2022-12-15T08:06:09;19.55;;;6.90;;
73456;SDS011;61691;53.072;6.582;2022-12-15T08:08:38;18.75;;;6.80;;
73456;SDS011;61691;53.072;6.582;2022-12-15T08:11:09;19.40;;;6.80;;
73456;SDS011;61691;53.072;6.582;2022-12-15T08:13:38;18.33;;;6.88;;
73456;SDS011;61691;53.072;6.582;2022-12-15T08:16:26;18.98;;;6.78;;
73456;SDS011;61691;53.072;6.582;2022-12-15T08:18:54;20.00;;;7.10;;
73456;SDS011;61691;53.072;6.582;2022-12-15T08:21:22;19.63;;;6.65;;
73456;SDS011;61691;53.072;6.582;2022-12-15T08:23:49;22.42;;;6.90;;
73456;SDS011;61691;53.072;6.582;2022-12-15T08:26:16;23.75;;;7.63;;
73456;SDS011;61691;53.072;6.582;2022-12-15T08:28:48;20.00;;;7.15;;
73456;SDS011;61691;53.072;6.582;2022-12-15T08:31:16;20.65;;;6.88;;
73456;SDS011;61691;53.072;6.582;2022-12-15T08:33:47;20.17;;;7.10;;
73456;SDS011;61691;53.072;6.582;2022-12-15T08:36:16;20.58;;;7.38;;
73456;SDS011;61691;53.072;6.582;2022-12-15T08:38:44;21.38;;;7.68;;
73456;SDS011;61691;53.072;6.582;2022-12-15T08:41:12;19.10;;;7.18;;
73456;SDS011;61691;53.072;6.582;2022-12-15T08:43:45;21.52;;;8.07;;
73456;SDS011;61691;53.072;6.582;2022-12-15T08:46:18;22.63;;;7.97;;
73456;SDS011;61691;53.072;6.582;2022-12-15T08:48:48;20.63;;;7.40;;
73456;SDS011;61691;53.072;6.582;2022-12-15T08:51:15;20.10;;;7.22;;
73456;SDS011;61691;53.072;6.582;2022-12-15T08:53:42;19.17;;;6.75;;
73456;SDS011;61691;53.072;6.582;2022-12-15T08:56:10;20.60;;;7.32;;
73456;SDS011;61691;53.072;6.582;2022-12-15T08:58:40;19.17;;;6.78;;
73456;SDS011;61691;53.072;6.582;2022-12-15T09:01:12;20.95;;;7.00;;
73456;SDS011;61691;53.072;6.582;2022-12-15T09:03:49;20.23;;;7.80;;
73456;SDS011;61691;53.072;6.582;2022-12-15T09:06:19;21.00;;;8.05;;
73456;SDS011;61691;53.072;6.582;2022-12-15T09:08:48;20.45;;;7.65;;
73456;SDS011;61691;53.072;6.582;2022-12-15T09:11:16;21.55;;;7.93;;
73456;SDS011;61691;53.072;6.582;2022-12-15T09:13:43;20.67;;;7.40;;
73456;SDS011;61691;53.072;6.582;2022-12-15T09:16:12;22.73;;;7.57;;
73456;SDS011;61691;53.072;6.582;2022-12-15T09:18:40;20.20;;;8.05;;
73456;SDS011;61691;53.072;6.582;2022-12-15T09:21:08;20.60;;;7.60;;
73456;SDS011;61691;53.072;6.582;2022-12-15T09:23:36;19.67;;;7.78;;
73456;SDS011;61691;53.072;6.582;2022-12-15T09:26:05;22.23;;;7.95;;
73456;SDS011;61691;53.072;6.582;2022-12-15T09:28:33;24.30;;;7.97;;
73456;SDS011;61691;53.072;6.582;2022-12-15T09:31:02;20.92;;;7.90;;
73456;SDS011;61691;53.072;6.582;2022-12-15T09:33:33;21.95;;;8.40;;
73456;SDS011;61691;53.072;6.582;2022-12-15T09:36:01;22.67;;;8.35;;
73456;SDS011;61691;53.072;6.582;2022-12-15T09:38:29;20.38;;;8.55;;
73456;SDS011;61691;53.072;6.582;2022-12-15T09:40:56;23.50;;;7.75;;
73456;SDS011;61691;53.072;6.582;2022-12-15T09:43:24;22.90;;;9.40;;
73456;SDS011;61691;53.072;6.582;2022-12-15T09:46:09;19.10;;;7.97;;
73456;SDS011;61691;53.072;6.582;2022-12-15T09:48:46;22.73;;;8.82;;
73456;SDS011;61691;53.072;6.582;2022-12-15T09:51:15;21.92;;;8.45;;
73456;SDS011;61691;53.072;6.582;2022-12-15T09:53:44;20.50;;;8.23;;
73456;SDS011;61691;53.072;6.582;2022-12-15T09:56:43;27.33;;;9.32;;
73456;SDS011;61691;53.072;6.582;2022-12-15T09:59:22;21.20;;;8.90;;
73456;SDS011;61691;53.072;6.582;2022-12-15T10:07:42;23.23;;;9.10;;
73456;SDS011;61691;53.072;6.582;2022-12-15T10:10:17;21.63;;;8.43;;
73456;SDS011;61691;53.072;6.582;2022-12-15T10:15:28;22.63;;;8.75;;
73456;SDS011;61691;53.072;6.582;2022-12-15T10:18:01;23.13;;;8.40;;
73456;SDS011;61691;53.072;6.582;2022-12-15T10:20:35;21.83;;;8.55;;
73456;SDS011;61691;53.072;6.582;2022-12-15T10:23:09;21.77;;;8.30;;
73456;SDS011;61691;53.072;6.582;2022-12-15T10:25:38;20.90;;;8.43;;
73456;SDS011;61691;53.072;6.582;2022-12-15T10:28:30;22.58;;;7.63;;
73456;SDS011;61691;53.072;6.582;2022-12-15T10:31:19;21.13;;;7.95;;
73456;SDS011;61691;53.072;6.582;2022-12-15T10:33:56;23.15;;;8.30;;
73456;SDS011;61691;53.072;6.582;2022-12-15T10:36:34;22.77;;;8.25;;
73456;SDS011;61691;53.072;6.582;2022-12-15T10:39:01;21.00;;;7.95;;
73456;SDS011;61691;53.072;6.582;2022-12-15T10:41:30;21.40;;;7.63;;
73456;SDS011;61691;53.072;6.582;2022-12-15T10:43:59;19.38;;;7.40;;
73456;SDS011;61691;53.072;6.582;2022-12-15T10:46:28;20.52;;;7.57;;
73456;SDS011;61691;53.072;6.582;2022-12-15T10:51:49;19.38;;;7.57;;
73456;SDS011;61691;53.072;6.582;2022-12-15T10:54:22;20.40;;;8.15;;
73456;SDS011;61691;53.072;6.582;2022-12-15T10:59:31;22.33;;;7.72;;
73456;SDS011;61691;53.072;6.582;2022-12-15T11:02:44;22.13;;;7.22;;
73456;SDS011;61691;53.072;6.582;2022-12-15T11:04:55;19.80;;;7.25;;
73456;SDS011;61691;53.072;6.582;2022-12-15T11:10:23;21.85;;;6.97;;
73456;SDS011;61691;53.072;6.582;2022-12-15T11:13:19;22.08;;;7.43;;
73456;SDS011;61691;53.072;6.582;2022-12-15T11:15:49;20.83;;;7.68;;
73456;SDS011;61691;53.072;6.582;2022-12-15T11:21:04;22.95;;;6.90;;
73456;SDS011;61691;53.072;6.582;2022-12-15T11:23:49;20.90;;;7.30;;
73456;SDS011;61691;53.072;6.582;2022-12-15T11:26:29;22.17;;;7.72;;
73456;SDS011;61691;53.072;6.582;2022-12-15T11:28:59;19.15;;;7.18;;
73456;SDS011;61691;53.072;6.582;2022-12-15T11:34:12;20.27;;;7.85;;
73456;SDS011;61691;53.072;6.582;2022-12-15T11:39:48;24.85;;;7.40;;
73456;SDS011;61691;53.072;6.582;2022-12-15T11:45:18;21.98;;;7.90;;
73456;SDS011;61691;53.072;6.582;2022-12-15T11:51:10;20.45;;;7.32;;
73456;SDS011;61691;53.072;6.582;2022-12-15T11:53:46;20.70;;;8.40;;
73456;SDS011;61691;53.072;6.582;2022-12-15T11:56:27;18.90;;;6.82;;
73456;SDS011;61691;53.072;6.582;2022-12-15T12:04:29;19.55;;;6.95;;
73456;SDS011;61691;53.072;6.582;2022-12-15T12:15:50;20.75;;;6.90;;
73456;SDS011;61691;53.072;6.582;2022-12-15T12:18:27;19.05;;;6.50;;
73456;SDS011;61691;53.072;6.582;2022-12-15T12:26:06;19.58;;;6.38;;
73456;SDS011;61691;53.072;6.582;2022-12-15T12:28:47;19.23;;;6.50;;
73456;SDS011;61691;53.072;6.582;2022-12-15T12:31:21;20.67;;;7.15;;
73456;SDS011;61691;53.072;6.582;2022-12-15T12:34:00;20.15;;;6.70;;
73456;SDS011;61691;53.072;6.582;2022-12-15T12:36:34;22.85;;;8.20;;
73456;SDS011;61691;53.072;6.582;2022-12-15T12:39:01;19.92;;;7.20;;
73456;SDS011;61691;53.072;6.582;2022-12-15T12:47:05;20.55;;;7.22;;
73456;SDS011;61691;53.072;6.582;2022-12-15T12:49:46;20.83;;;6.85;;
73456;SDS011;61691;53.072;6.582;2022-12-15T12:52:21;19.25;;;6.18;;
73456;SDS011;61691;53.072;6.582;2022-12-15T13:05:26;19.67;;;6.53;;
73456;SDS011;61691;53.072;6.582;2022-12-15T13:10:43;19.92;;;6.75;;
73456;SDS011;61691;53.072;6.582;2022-12-15T13:16:17;22.58;;;6.93;;
73456;SDS011;61691;53.072;6.582;2022-12-15T13:19:04;18.90;;;6.78;;
73456;SDS011;61691;53.072;6.582;2022-12-15T13:24:17;22.77;;;7.32;;
73456;SDS011;61691;53.072;6.582;2022-12-15T13:29:52;22.35;;;7.70;;
73456;SDS011;61691;53.072;6.582;2022-12-15T13:37:42;20.63;;;6.90;;
73456;SDS011;61691;53.072;6.582;2022-12-15T13:48:13;19.73;;;7.55;;
73456;SDS011;61691;53.072;6.582;2022-12-15T13:50:48;22.33;;;6.70;;
73456;SDS011;61691;53.072;6.582;2022-12-15T13:53:24;19.98;;;6.97;;
73456;SDS011;61691;53.072;6.582;2022-12-15T13:55:58;21.95;;;7.15;;
73456;SDS011;61691;53.072;6.582;2022-12-15T13:58:31;19.00;;;6.97;;
73456;SDS011;61691;53.072;6.582;2022-12-15T14:01:15;20.23;;;7.05;;
73456;SDS011;61691;53.072;6.582;2022-12-15T14:06:46;20.17;;;7.38;;
73456;SDS011;61691;53.072;6.582;2022-12-15T14:09:18;20.95;;;7.10;;
73456;SDS011;61691;53.072;6.582;2022-12-15T14:11:57;21.42;;;7.30;;
73456;SDS011;61691;53.072;6.582;2022-12-15T14:14:28;21.38;;;7.22;;
73456;SDS011;61691;53.072;6.582;2022-12-15T14:16:59;18.85;;;7.00;;
73456;SDS011;61691;53.072;6.582;2022-12-15T14:19:41;20.00;;;7.18;;
73456;SDS011;61691;53.072;6.582;2022-12-15T14:22:22;22.58;;;7.40;;
73456;SDS011;61691;53.072;6.582;2022-12-15T14:25:21;20.00;;;7.25;;
73456;SDS011;61691;53.072;6.582;2022-12-15T14:27:49;23.60;;;8.23;;
73456;SDS011;61691;53.072;6.582;2022-12-15T14:30:18;19.42;;;6.63;;
73456;SDS011;61691;53.072;6.582;2022-12-15T14:32:50;23.42;;;7.22;;
73456;SDS011;61691;53.072;6.582;2022-12-15T14:35:27;19.40;;;7.28;;
73456;SDS011;61691;53.072;6.582;2022-12-15T14:38:03;19.90;;;7.13;;
73456;SDS011;61691;53.072;6.582;2022-12-15T14:40:36;20.77;;;7.10;;
73456;SDS011;61691;53.072;6.582;2022-12-15T14:43:07;23.73;;;7.20;;
73456;SDS011;61691;53.072;6.582;2022-12-15T14:45:41;21.23;;;7.20;;
73456;SDS011;61691;53.072;6.582;2022-12-15T14:48:08;20.30;;;7.57;;
73456;SDS011;61691;53.072;6.582;2022-12-15T14:50:57;20.42;;;7.00;;
73456;SDS011;61691;53.072;6.582;2022-12-15T14:53:28;19.67;;;7.43;;
73456;SDS011;61691;53.072;6.582;2022-12-15T14:58:59;19.13;;;7.68;;
73456;SDS011;61691;53.072;6.582;2022-12-15T15:06:59;20.73;;;7.22;;
73456;SDS011;61691;53.072;6.582;2022-12-15T15:09:36;21.63;;;7.88;;
73456;SDS011;61691;53.072;6.582;2022-12-15T15:14:41;20.88;;;7.75;;
73456;SDS011;61691;53.072;6.582;2022-12-15T15:17:28;22.55;;;8.43;;
73456;SDS011;61691;53.072;6.582;2022-12-15T15:20:02;22.17;;;8.10;;
73456;SDS011;61691;53.072;6.582;2022-12-15T15:22:43;21.63;;;8.45;;
73456;SDS011;61691;53.072;6.582;2022-12-15T15:25:46;21.17;;;8.57;;
73456;SDS011;61691;53.072;6.582;2022-12-15T15:34:06;22.58;;;7.75;;
73456;SDS011;61691;53.072;6.582;2022-12-15T15:36:37;20.95;;;8.10;;
73456;SDS011;61691;53.072;6.582;2022-12-15T15:39:12;21.08;;;7.70;;
73456;SDS011;61691;53.072;6.582;2022-12-15T15:41:40;22.45;;;8.15;;
73456;SDS011;61691;53.072;6.582;2022-12-15T15:44:12;21.48;;;8.27;;
73456;SDS011;61691;53.072;6.582;2022-12-15T15:46:47;21.42;;;8.88;;
73456;SDS011;61691;53.072;6.582;2022-12-15T15:49:19;21.55;;;8.40;;
73456;SDS011;61691;53.072;6.582;2022-12-15T15:51:48;22.98;;;9.35;;
73456;SDS011;61691;53.072;6.582;2022-12-15T15:54:16;22.20;;;8.73;;
73456;SDS011;61691;53.072;6.582;2022-12-15T15:56:45;23.65;;;9.68;;
73456;SDS011;61691;53.072;6.582;2022-12-15T15:59:13;23.33;;;9.98;;
73456;SDS011;61691;53.072;6.582;2022-12-15T16:01:44;22.83;;;10.20;;
73456;SDS011;61691;53.072;6.582;2022-12-15T16:04:17;23.40;;;10.45;;
73456;SDS011;61691;53.072;6.582;2022-12-15T16:06:44;24.17;;;10.50;;
73456;SDS011;61691;53.072;6.582;2022-12-15T16:09:13;23.50;;;10.98;;
73456;SDS011;61691;53.072;6.582;2022-12-15T16:11:42;22.77;;;9.10;;
73456;SDS011;61691;53.072;6.582;2022-12-15T16:14:14;23.00;;;10.30;;
73456;SDS011;61691;53.072;6.582;2022-12-15T16:16:43;22.95;;;10.13;;
73456;SDS011;61691;53.072;6.582;2022-12-15T16:19:10;22.40;;;10.30;;
73456;SDS011;61691;53.072;6.582;2022-12-15T16:21:39;25.00;;;10.45;;
73456;SDS011;61691;53.072;6.582;2022-12-15T16:24:15;22.02;;;10.15;;
73456;SDS011;61691;53.072;6.582;2022-12-15T16:26:46;25.02;;;11.45;;
73456;SDS011;61691;53.072;6.582;2022-12-15T16:29:15;21.48;;;9.63;;
73456;SDS011;61691;53.072;6.582;2022-12-15T16:31:44;22.35;;;10.50;;
73456;SDS011;61691;53.072;6.582;2022-12-15T16:34:12;21.58;;;10.32;;
73456;SDS011;61691;53.072;6.582;2022-12-15T16:41:53;24.13;;;11.27;;
73456;SDS011;61691;53.072;6.582;2022-12-15T16:44:21;25.98;;;11.32;;
73456;SDS011;61691;53.072;6.582;2022-12-15T16:46:49;25.60;;;12.15;;
73456;SDS011;61691;53.072;6.582;2022-12-15T16:49:16;22.35;;;10.30;;
73456;SDS011;61691;53.072;6.582;2022-12-15T16:51:44;23.77;;;10.70;;
73456;SDS011;61691;53.072;6.582;2022-12-15T16:54:15;26.60;;;11.48;;
73456;SDS011;61691;53.072;6.582;2022-12-15T16:56:45;26.02;;;12.05;;
73456;SDS011;61691;53.072;6.582;2022-12-15T16:59:15;24.30;;;11.57;;
73456;SDS011;61691;53.072;6.582;2022-12-15T17:02:04;25.73;;;12.77;;
73456;SDS011;61691;53.072;6.582;2022-12-15T17:04:52;28.23;;;12.65;;
73456;SDS011;61691;53.072;6.582;2022-12-15T17:07:20;26.50;;;12.00;;
73456;SDS011;61691;53.072;6.582;2022-12-15T17:09:48;25.27;;;11.63;;
73456;SDS011;61691;53.072;6.582;2022-12-15T17:12:18;26.98;;;12.98;;
73456;SDS011;61691;53.072;6.582;2022-12-15T17:14:45;23.65;;;12.00;;
73456;SDS011;61691;53.072;6.582;2022-12-15T17:17:15;25.27;;;13.32;;
73456;SDS011;61691;53.072;6.582;2022-12-15T17:19:44;30.10;;;17.40;;
73456;SDS011;61691;53.072;6.582;2022-12-15T17:22:31;30.58;;;17.48;;
73456;SDS011;61691;53.072;6.582;2022-12-15T17:24:58;29.73;;;15.32;;
73456;SDS011;61691;53.072;6.582;2022-12-15T17:27:25;37.55;;;15.00;;
73456;SDS011;61691;53.072;6.582;2022-12-15T17:29:54;29.40;;;14.27;;
73456;SDS011;61691;53.072;6.582;2022-12-15T17:32:22;29.13;;;13.50;;
73456;SDS011;61691;53.072;6.582;2022-12-15T17:34:48;27.00;;;13.82;;
73456;SDS011;61691;53.072;6.582;2022-12-15T17:37:15;654.47;;;53.42;;